Saint Eustatius, St. Eustatius

3:55 PM AST on March 27, 2015 (GMT -0400)
IDUTCHCA4 | | Change Station
CLOSE
Current Station
Personal Weather Station
Location: Oranjestad, DUTCH CARIBBEAN
Elevation: 575 ft
Nearby Weather Stations

Elev 575 ft 17.48 °N, 62.97 °W | Updated 55 seconds ago

Mostly Cloudy
Mostly Cloudy
82.1 °F
Feels Like 86 °F
N
4.0
Wind Variable Wind from WNW

Today
High -- | Low -- °F
--% Chance of Precip.
Yesterday
High -- | Low -- °F
Precip. -- in
6:10 AM 6:24 PM
First Quarter, 55% visible
Pressure 30.04 in
Visibility 6.2 miles
Clouds Mostly Cloudy 2200 ft
Heat Index 86 °F
Dew Point 70 °F
Humidity 66%
Rainfall 0.00 in
Snow Depth Not available.
UV 2.8 out of 12
Pollen Not available.
Air Quality Not available.
Flu Activity Not available.
METAR TKPK 271900Z 07013KT 9999 BKN022 28/20 Q1017

More Conditions Fewer Conditions

Pressure 30.04 in
Visibility 6.2 miles
Clouds Mostly Cloudy 2200 ft
Heat Index 86 °F
Dew Point 70 °F
Humidity 66%
Rainfall 0.00 in
Snow Depth Not available.
UV 2.8 out of 12
Pollen Not available.
Air Quality Not available.
Flu Activity Not available.
METAR TKPK 271900Z 07013KT 9999 BKN022 28/20 Q1017

More Conditions Fewer Conditions

10-Day Weather Forecast

Almanac

Astronomy

Mar. 27, 2015 Rise Set
Actual Time
Civil Twilight
Nautical Twilight
Astronomical Twilight
Moon
Length of Visible Light
Length of Day
Tomorrow will be .
, % of the Moon is Illuminated

Today's Extremes

Country Highs Country Lows

Community

WunderPhotos

Upload Photos

1,808,799 photos uploaded!

WunderBlogs® & News

Nearby

Air Quality

  Air Quality AQ Index Pollutant
Not available.

Snow Depth

Station Depth Elevation

Earthquake Activity

City Distance Mag. Time & Date
Minimum magnitude displayed is 2.5.

Coastal Water Temperatures

Place Temperature

Stations

Nearby Weather Stations

Station Location Temp. Windchill Dew Point Humidity Wind Precip. Elev Updated Type